createdAt,value
2019-03-15T00:01:57.045Z,11.12
2019-03-15T00:04:24.445Z,7.17
2019-03-15T00:06:51.869Z,8.88
2019-03-15T00:09:19.252Z,8.33
2019-03-15T00:11:46.675Z,10.45
2019-03-15T00:14:14.106Z,9.65
2019-03-15T00:16:41.493Z,5.87
2019-03-15T00:19:08.863Z,9.50
2019-03-15T00:21:36.286Z,8.03
2019-03-15T00:24:03.695Z,8.58
2019-03-15T00:26:31.097Z,7.58
2019-03-15T00:28:58.639Z,7.33
2019-03-15T00:31:26.110Z,7.58
2019-03-15T00:33:53.506Z,8.15
2019-03-15T00:36:21.080Z,5.67
2019-03-15T00:38:48.654Z,8.23
2019-03-15T00:41:16.067Z,5.87
2019-03-15T00:43:43.520Z,9.18
2019-03-15T00:46:11.060Z,8.18
2019-03-15T00:48:38.467Z,9.45
2019-03-15T00:51:05.899Z,8.23
2019-03-15T00:53:33.402Z,7.37
2019-03-15T00:56:00.809Z,6.50
2019-03-15T00:58:28.223Z,6.70
2019-03-15T01:00:55.644Z,8.35
2019-03-15T01:03:23.040Z,7.80
2019-03-15T01:05:50.581Z,8.73
2019-03-15T01:08:17.983Z,8.78
2019-03-15T01:10:45.436Z,6.65
2019-03-15T01:13:12.988Z,9.18
2019-03-15T01:15:41.571Z,9.33
2019-03-15T01:18:09.079Z,8.20
2019-03-15T01:20:36.577Z,7.78
2019-03-15T01:23:03.971Z,8.58
2019-03-15T01:25:31.370Z,7.70
2019-03-15T01:28:01.801Z,7.22
2019-03-15T01:30:29.168Z,9.65
2019-03-15T01:32:56.617Z,7.35
2019-03-15T01:35:24.228Z,13.03
2019-03-15T01:37:51.657Z,8.00
2019-03-15T01:40:19.037Z,8.75
2019-03-15T01:42:46.568Z,6.90
2019-03-15T01:45:14.008Z,8.00
2019-03-15T01:47:41.402Z,8.98
2019-03-15T01:50:08.829Z,9.38
2019-03-15T01:52:36.211Z,7.90
2019-03-15T01:55:03.595Z,7.00
2019-03-15T01:57:31.072Z,9.13
2019-03-15T01:59:58.471Z,10.70
2019-03-15T02:02:25.878Z,9.48
2019-03-15T02:04:53.300Z,7.67
2019-03-15T02:07:20.681Z,8.18
2019-03-15T02:09:48.055Z,6.60
2019-03-15T02:12:15.487Z,8.20
2019-03-15T02:14:42.899Z,9.38
2019-03-15T02:17:10.300Z,10.32
2019-03-15T02:19:37.722Z,6.50
2019-03-15T02:22:05.106Z,8.98
2019-03-15T02:24:32.501Z,11.80
2019-03-15T02:26:59.917Z,7.55
2019-03-15T02:29:27.305Z,8.13
2019-03-15T02:31:57.729Z,7.70
2019-03-15T02:34:25.420Z,8.10
2019-03-15T02:36:52.930Z,11.30
2019-03-15T02:39:20.473Z,9.98
2019-03-15T02:41:47.922Z,9.60
2019-03-15T02:44:15.411Z,8.00
2019-03-15T02:46:42.877Z,8.20
2019-03-15T02:49:10.286Z,8.10
2019-03-15T02:51:37.960Z,10.58
2019-03-15T02:54:05.365Z,10.00
2019-03-15T02:56:32.902Z,7.87
2019-03-15T02:59:00.353Z,10.18
2019-03-15T03:01:27.768Z,7.45
2019-03-15T03:03:55.321Z,8.93
2019-03-15T03:06:22.782Z,10.40
2019-03-15T03:08:50.174Z,8.93
2019-03-15T03:11:17.616Z,12.33
2019-03-15T03:13:45.371Z,8.30
2019-03-15T03:16:12.814Z,9.25
2019-03-15T03:18:40.330Z,10.00
2019-03-15T03:21:07.771Z,11.93
2019-03-15T03:23:35.393Z,10.00
2019-03-15T03:26:02.806Z,10.25
2019-03-15T03:28:30.212Z,9.95
2019-03-15T03:30:57.674Z,8.03
2019-03-15T03:33:25.197Z,12.47
2019-03-15T03:35:52.661Z,9.45
2019-03-15T03:38:20.045Z,7.72
2019-03-15T03:40:47.466Z,8.73
2019-03-15T03:43:14.857Z,10.58
2019-03-15T03:45:42.256Z,9.75
2019-03-15T03:48:09.707Z,9.18
2019-03-15T03:50:37.117Z,6.90
2019-03-15T03:53:04.520Z,10.20
2019-03-15T03:55:31.928Z,6.28
2019-03-15T03:57:59.397Z,7.53
2019-03-15T04:00:26.783Z,6.40
2019-03-15T04:02:54.211Z,7.03
2019-03-15T04:05:22.049Z,6.72
2019-03-15T04:07:49.432Z,6.70
2019-03-15T04:10:16.837Z,5.33
2019-03-15T04:12:44.237Z,8.90
2019-03-15T04:15:11.649Z,6.75
2019-03-15T04:17:39.078Z,7.40
2019-03-15T04:20:06.476Z,6.12
2019-03-15T04:22:33.939Z,5.80
2019-03-15T04:25:01.444Z,5.60
2019-03-15T04:27:28.861Z,5.42
2019-03-15T04:29:58.980Z,6.33
2019-03-15T04:32:26.557Z,4.15
2019-03-15T04:34:54.084Z,6.42
2019-03-15T04:37:22.838Z,4.33
2019-03-15T04:39:50.476Z,4.42
2019-03-15T04:42:17.868Z,2.90
2019-03-15T04:44:45.283Z,4.60
2019-03-15T04:47:12.748Z,5.00
2019-03-15T04:49:40.140Z,4.30
2019-03-15T04:52:07.524Z,4.10
2019-03-15T04:54:34.975Z,2.92
2019-03-15T04:57:02.358Z,3.37
2019-03-15T04:59:29.753Z,4.67
2019-03-15T05:01:57.193Z,5.25
2019-03-15T05:04:24.587Z,3.42
2019-03-15T05:06:51.969Z,3.77
2019-03-15T05:09:19.408Z,3.33
2019-03-15T05:11:46.854Z,5.35
2019-03-15T05:14:14.263Z,3.85
2019-03-15T05:16:41.688Z,5.25
2019-03-15T05:19:09.072Z,6.33
2019-03-15T05:21:36.508Z,6.15
2019-03-15T05:24:03.965Z,4.47
2019-03-15T05:26:31.407Z,4.78
2019-03-15T05:28:58.794Z,3.90
2019-03-15T05:31:26.263Z,3.98
2019-03-15T05:33:53.669Z,4.05
2019-03-15T05:36:21.059Z,3.30
2019-03-15T05:38:48.443Z,4.33
2019-03-15T05:41:16.158Z,5.30
2019-03-15T05:43:43.554Z,4.83
2019-03-15T05:46:11.014Z,2.60
2019-03-15T05:48:38.531Z,4.58
2019-03-15T05:51:06.043Z,4.87
2019-03-15T05:53:33.501Z,4.95
2019-03-15T05:56:00.927Z,4.40
2019-03-15T05:58:28.311Z,4.22
2019-03-15T06:00:55.742Z,3.72
2019-03-15T06:03:23.274Z,4.97
2019-03-15T06:05:50.711Z,2.67
2019-03-15T06:08:18.135Z,5.10
2019-03-15T06:10:45.539Z,5.00
2019-03-15T06:13:12.967Z,4.55
2019-03-15T06:15:40.371Z,5.53
2019-03-15T06:18:07.905Z,4.25
2019-03-15T06:20:35.397Z,4.78
2019-03-15T06:23:02.809Z,6.78
2019-03-15T06:25:30.237Z,3.92
2019-03-15T06:27:57.636Z,3.30
2019-03-15T06:30:25.041Z,2.65
2019-03-15T06:32:52.645Z,2.85
2019-03-15T06:35:20.067Z,6.65
2019-03-15T06:37:47.554Z,5.92
2019-03-15T06:40:14.978Z,2.77
2019-03-15T06:42:42.465Z,4.08
2019-03-15T06:45:10.795Z,2.83
2019-03-15T06:47:38.226Z,3.40
2019-03-15T06:50:05.637Z,3.75
2019-03-15T06:52:33.032Z,2.33
2019-03-15T06:55:00.471Z,3.02
2019-03-15T06:57:27.924Z,3.40
2019-03-15T06:59:55.346Z,2.00
2019-03-15T07:02:22.862Z,2.33
2019-03-15T07:04:50.310Z,4.30
2019-03-15T07:07:17.797Z,2.83
2019-03-15T07:09:45.211Z,3.42
2019-03-15T07:12:12.628Z,3.47
2019-03-15T07:14:40.040Z,4.83
2019-03-15T07:17:07.474Z,4.25
2019-03-15T07:19:34.861Z,6.42
2019-03-15T07:22:02.283Z,5.78
2019-03-15T07:24:29.690Z,9.00
2019-03-15T07:26:57.093Z,8.85
2019-03-15T07:29:24.534Z,7.50
2019-03-15T07:31:52.072Z,4.47
2019-03-15T07:34:19.472Z,7.22
2019-03-15T07:36:46.902Z,4.80
2019-03-15T07:39:14.300Z,5.58
2019-03-15T07:41:41.689Z,6.03
2019-03-15T07:44:09.142Z,7.28
2019-03-15T07:46:36.630Z,5.15
2019-03-15T07:49:04.012Z,6.28
2019-03-15T07:51:31.502Z,6.70
2019-03-15T07:53:58.920Z,8.10
2019-03-15T07:56:28.676Z,6.40
2019-03-15T07:58:55.564Z,5.37
2019-03-15T08:01:23.026Z,6.65
2019-03-15T08:03:50.424Z,5.78
2019-03-15T08:06:17.833Z,5.17
2019-03-15T08:08:45.303Z,6.55
2019-03-15T08:11:12.750Z,7.53
2019-03-15T08:13:40.261Z,6.90
2019-03-15T08:16:07.782Z,7.33
2019-03-15T08:18:35.168Z,4.72
2019-03-15T08:21:02.575Z,6.45
2019-03-15T08:23:29.961Z,6.50
2019-03-15T08:25:57.347Z,6.50
2019-03-15T08:28:24.809Z,8.78
2019-03-15T08:30:52.303Z,14.90
2019-03-15T08:33:19.707Z,11.95
2019-03-15T08:35:47.256Z,10.10
2019-03-15T08:38:14.667Z,12.18
2019-03-15T08:40:42.068Z,11.45
2019-03-15T08:43:09.471Z,13.78
2019-03-15T08:45:36.927Z,15.10
2019-03-15T08:48:04.323Z,13.22
2019-03-15T08:50:31.789Z,13.28
2019-03-15T08:52:59.303Z,10.05
2019-03-15T08:55:26.779Z,10.80
2019-03-15T08:57:54.189Z,13.43
2019-03-15T09:00:21.667Z,12.40
2019-03-15T09:02:49.128Z,11.80
2019-03-15T09:05:16.698Z,12.40
2019-03-15T09:07:44.302Z,12.05
2019-03-15T09:10:21.735Z,15.72
2019-03-15T09:12:40.865Z,13.48
2019-03-15T09:15:08.294Z,16.02
2019-03-15T09:17:35.762Z,15.53
2019-03-15T09:20:03.165Z,13.68
2019-03-15T09:22:30.688Z,13.38
2019-03-15T09:24:58.111Z,12.73
2019-03-15T09:27:25.511Z,14.60
2019-03-15T09:29:52.915Z,14.03
2019-03-15T09:32:20.360Z,14.60
2019-03-15T09:34:47.815Z,13.13
2019-03-15T09:37:15.219Z,12.05
2019-03-15T09:39:42.700Z,15.43
2019-03-15T09:42:10.181Z,17.80
2019-03-15T09:44:37.771Z,16.57
2019-03-15T09:47:05.243Z,11.45
2019-03-15T09:49:32.792Z,12.70
2019-03-15T09:52:00.196Z,11.28
2019-03-15T09:54:27.659Z,19.85
2019-03-15T09:56:55.106Z,12.95
2019-03-15T09:59:22.492Z,14.30
2019-03-15T10:01:49.910Z,11.75
2019-03-15T10:04:20.292Z,12.85
2019-03-15T10:06:50.530Z,14.63
2019-03-15T10:09:17.944Z,16.35
2019-03-15T10:11:45.330Z,16.20
2019-03-15T10:14:12.804Z,14.73
2019-03-15T10:16:40.250Z,12.53
2019-03-15T10:19:07.689Z,13.80
2019-03-15T10:21:35.124Z,14.18
2019-03-15T10:24:02.561Z,16.15
2019-03-15T10:26:30.044Z,17.00
2019-03-15T10:28:57.445Z,13.83
2019-03-15T10:31:26.687Z,15.18
2019-03-15T10:33:54.401Z,16.60
2019-03-15T10:36:21.847Z,16.10
2019-03-15T10:38:49.255Z,15.93
2019-03-15T10:41:16.657Z,12.15
2019-03-15T10:43:44.232Z,16.70
2019-03-15T10:46:11.649Z,16.12
2019-03-15T10:48:39.053Z,14.00
2019-03-15T10:51:06.487Z,15.23
2019-03-15T10:53:33.894Z,16.37
2019-03-15T10:56:01.395Z,11.48
2019-03-15T10:58:29.020Z,13.05
2019-03-15T11:00:56.423Z,13.75
2019-03-15T11:03:23.798Z,12.35
2019-03-15T11:05:51.219Z,14.25
2019-03-15T11:08:18.635Z,10.63
2019-03-15T11:10:46.007Z,14.55
2019-03-15T11:13:13.434Z,11.53
2019-03-15T11:15:40.905Z,14.10
2019-03-15T11:18:08.395Z,13.38
2019-03-15T11:20:35.917Z,13.83
2019-03-15T11:23:03.396Z,13.58
2019-03-15T11:25:31.080Z,12.47
2019-03-15T11:27:58.587Z,17.85
2019-03-15T11:30:26.002Z,12.73
2019-03-15T11:32:53.395Z,14.45
2019-03-15T11:35:21.506Z,14.13
2019-03-15T11:37:49.353Z,11.75
2019-03-15T11:40:19.049Z,17.35
2019-03-15T11:42:45.929Z,13.88
2019-03-15T11:45:13.360Z,11.35
2019-03-15T11:48:01.416Z,11.00
2019-03-15T11:50:10.799Z,12.25
2019-03-15T11:52:38.287Z,13.85
2019-03-15T11:55:05.765Z,11.22
2019-03-15T11:57:33.404Z,12.33
2019-03-15T12:00:00.833Z,15.00
2019-03-15T12:02:28.336Z,10.10
2019-03-15T12:04:55.725Z,17.05
2019-03-15T12:07:23.152Z,14.53
2019-03-15T12:09:50.651Z,15.58
2019-03-15T12:12:21.521Z,13.58
2019-03-15T12:14:47.617Z,15.38
2019-03-15T12:17:15.066Z,13.53
2019-03-15T12:19:42.564Z,13.18
2019-03-15T12:22:09.974Z,13.22
2019-03-15T12:24:37.478Z,13.60
2019-03-15T12:27:04.883Z,14.83
2019-03-15T12:29:32.347Z,13.08
2019-03-15T12:31:59.804Z,11.30
2019-03-15T12:34:27.278Z,11.25
2019-03-15T12:36:54.680Z,13.15
2019-03-15T12:39:22.198Z,14.45
2019-03-15T12:41:49.687Z,14.40
2019-03-15T12:44:17.111Z,13.20
2019-03-15T12:46:44.542Z,12.40
2019-03-15T12:49:12.042Z,14.03
2019-03-15T12:51:39.548Z,9.90
2019-03-15T12:54:06.994Z,12.93
2019-03-15T12:56:34.470Z,13.13
2019-03-15T12:59:01.923Z,10.68
2019-03-15T13:01:29.373Z,11.08
2019-03-15T13:03:56.765Z,12.80
2019-03-15T13:06:24.171Z,13.88
2019-03-15T13:08:51.912Z,12.20
2019-03-15T13:11:19.346Z,12.13
2019-03-15T13:13:46.813Z,10.58
2019-03-15T13:16:14.248Z,11.78
2019-03-15T13:18:41.649Z,14.18
2019-03-15T13:21:09.075Z,11.95
2019-03-15T13:23:36.594Z,16.93
2019-03-15T13:26:03.981Z,14.87
2019-03-15T13:28:31.393Z,16.82
2019-03-15T13:30:58.805Z,10.95
2019-03-15T13:33:26.284Z,14.10
2019-03-15T13:35:53.730Z,11.48
2019-03-15T13:38:21.211Z,16.35
2019-03-15T13:40:48.626Z,10.90
2019-03-15T13:43:16.040Z,15.75
2019-03-15T13:45:43.546Z,15.35
2019-03-15T13:48:11.133Z,16.93
2019-03-15T13:50:38.550Z,17.75
2019-03-15T13:53:06.069Z,16.95
2019-03-15T13:55:33.459Z,17.30
2019-03-15T13:58:00.857Z,18.17
2019-03-15T14:00:28.348Z,14.87
2019-03-15T14:02:55.830Z,15.40
2019-03-15T14:05:23.216Z,18.82
2019-03-15T14:07:50.606Z,20.00
2019-03-15T14:10:18.025Z,18.37
2019-03-15T14:12:45.418Z,19.20
2019-03-15T14:15:13.031Z,21.93
2019-03-15T14:17:40.432Z,17.05
2019-03-15T14:20:07.813Z,16.62
2019-03-15T14:22:35.200Z,17.17
2019-03-15T14:25:02.587Z,16.85
2019-03-15T14:27:37.322Z,17.92
2019-03-15T14:29:59.124Z,15.60
2019-03-15T14:32:26.510Z,13.50
2019-03-15T14:34:53.913Z,18.90
2019-03-15T14:37:21.486Z,12.33
2019-03-15T14:39:49.170Z,12.78
2019-03-15T14:42:16.675Z,12.70
2019-03-15T14:44:44.107Z,12.60
2019-03-15T14:47:11.626Z,16.45
2019-03-15T14:49:39.031Z,16.65
2019-03-15T14:52:06.479Z,15.35
2019-03-15T14:54:33.976Z,15.98
2019-03-15T14:57:01.382Z,12.18
2019-03-15T14:59:28.864Z,17.02
2019-03-15T15:01:56.351Z,11.33
2019-03-15T15:04:23.943Z,10.90
2019-03-15T15:06:51.448Z,11.35
2019-03-15T15:09:18.967Z,10.05
2019-03-15T15:11:46.355Z,12.25
2019-03-15T15:14:13.759Z,13.13
2019-03-15T15:16:41.203Z,13.48
2019-03-15T15:19:08.629Z,14.50
2019-03-15T15:21:36.049Z,14.23
2019-03-15T15:24:03.746Z,12.45
2019-03-15T15:26:31.148Z,10.03
2019-03-15T15:28:58.578Z,16.05
2019-03-15T15:31:26.144Z,13.18
2019-03-15T15:33:53.700Z,13.22
2019-03-15T15:36:23.289Z,12.18
2019-03-15T15:38:50.824Z,11.45
2019-03-15T15:41:18.243Z,11.50
2019-03-15T15:43:45.678Z,12.00
2019-03-15T15:46:13.099Z,11.75
2019-03-15T15:48:40.512Z,9.15
2019-03-15T15:51:08.027Z,11.93
2019-03-15T15:53:35.455Z,10.98
2019-03-15T15:56:02.905Z,11.85
2019-03-15T15:58:30.348Z,11.33
2019-03-15T16:00:57.813Z,12.15
2019-03-15T16:03:25.220Z,13.60
2019-03-15T16:05:52.628Z,13.53
2019-03-15T16:08:20.059Z,12.07
2019-03-15T16:10:50.571Z,12.80
2019-03-15T16:13:18.035Z,14.13
2019-03-15T16:15:45.467Z,9.53
2019-03-15T16:18:12.869Z,14.35
2019-03-15T16:20:43.003Z,13.05
2019-03-15T16:23:10.542Z,12.65
2019-03-15T16:25:38.019Z,11.48
2019-03-15T16:28:06.607Z,15.05
2019-03-15T16:30:34.083Z,15.45
2019-03-15T16:33:06.059Z,15.10
2019-03-15T16:35:30.946Z,11.53
2019-03-15T16:37:58.478Z,15.55
2019-03-15T16:40:25.895Z,17.65
2019-03-15T16:42:53.668Z,16.00
2019-03-15T16:45:21.119Z,13.50
2019-03-15T16:47:48.596Z,13.22
2019-03-15T16:50:15.996Z,13.50
2019-03-15T16:52:43.509Z,14.10
2019-03-15T16:55:11.000Z,11.55
2019-03-15T16:57:38.452Z,15.00
2019-03-15T17:00:06.012Z,14.35
2019-03-15T17:02:33.473Z,15.25
2019-03-15T17:05:00.889Z,14.58
2019-03-15T17:07:28.331Z,14.07
2019-03-15T17:09:55.722Z,11.25
2019-03-15T17:12:23.133Z,15.20
2019-03-15T17:14:50.590Z,11.83
2019-03-15T17:17:18.017Z,13.68
2019-03-15T17:19:45.503Z,15.15
2019-03-15T17:22:12.939Z,14.50
2019-03-15T17:24:40.656Z,11.18
2019-03-15T17:27:08.148Z,10.95
2019-03-15T17:29:35.921Z,14.73
2019-03-15T17:32:03.358Z,15.30
2019-03-15T17:34:30.739Z,11.90
2019-03-15T17:37:06.641Z,14.05
2019-03-15T17:39:27.789Z,12.93
2019-03-15T17:41:55.252Z,15.95
2019-03-15T17:44:22.734Z,13.28
2019-03-15T17:46:50.115Z,10.80
2019-03-15T17:49:17.571Z,15.35
2019-03-15T17:51:44.973Z,12.63
2019-03-15T17:54:12.376Z,20.92
2019-03-15T17:56:39.833Z,13.15
2019-03-15T17:59:12.326Z,12.65
2019-03-15T18:01:36.503Z,10.38
2019-03-15T18:04:04.008Z,14.03
2019-03-15T18:06:31.855Z,12.98
2019-03-15T18:08:59.285Z,12.60
2019-03-15T18:11:26.750Z,13.72
2019-03-15T18:13:54.312Z,12.05
2019-03-15T18:16:21.812Z,11.55
2019-03-15T18:18:49.273Z,11.73
2019-03-15T18:21:16.946Z,12.25
2019-03-15T18:23:44.423Z,15.10
2019-03-15T18:26:11.969Z,10.93
2019-03-15T18:28:39.378Z,12.47
2019-03-15T18:31:06.758Z,10.55
2019-03-15T18:33:34.196Z,13.98
2019-03-15T18:36:01.588Z,8.13
2019-03-15T18:38:29.013Z,11.68
2019-03-15T18:40:56.432Z,11.35
2019-03-15T18:43:23.839Z,13.13
2019-03-15T18:45:51.244Z,10.55
2019-03-15T18:48:18.837Z,9.88
2019-03-15T18:50:46.272Z,10.13
2019-03-15T18:53:13.672Z,8.48
2019-03-15T18:55:41.156Z,10.85
2019-03-15T18:58:08.580Z,10.08
2019-03-15T19:00:36.007Z,8.88
2019-03-15T19:03:03.437Z,10.93
2019-03-15T19:05:30.944Z,13.43
2019-03-15T19:07:58.743Z,12.03
2019-03-15T19:10:26.264Z,7.53
2019-03-15T19:12:53.714Z,9.15
2019-03-15T19:15:21.147Z,10.10
2019-03-15T19:17:48.592Z,9.27
2019-03-15T19:20:16.075Z,6.63
2019-03-15T19:22:43.475Z,7.72
2019-03-15T19:25:11.064Z,10.13
2019-03-15T19:27:38.494Z,10.00
2019-03-15T19:30:05.973Z,10.65
2019-03-15T19:32:34.013Z,8.70
2019-03-15T19:35:02.299Z,9.55
2019-03-15T19:37:29.714Z,10.45
2019-03-15T19:39:57.399Z,11.37
2019-03-15T19:42:24.905Z,11.75
2019-03-15T19:44:52.387Z,14.45
2019-03-15T19:47:19.990Z,9.40
2019-03-15T19:49:47.936Z,10.45
2019-03-15T19:52:15.903Z,13.53
2019-03-15T19:54:44.082Z,8.80
2019-03-15T19:57:12.289Z,9.08
2019-03-15T19:59:40.621Z,10.70
2019-03-15T20:02:11.587Z,8.03
2019-03-15T20:04:39.081Z,7.57
2019-03-15T20:07:06.527Z,10.10
2019-03-15T20:09:33.999Z,7.80
2019-03-15T20:12:01.475Z,9.40
2019-03-15T20:14:28.865Z,9.03
2019-03-15T20:16:56.435Z,10.60
2019-03-15T20:19:23.855Z,5.80
2019-03-15T20:21:51.339Z,9.73
2019-03-15T20:24:18.827Z,11.15
2019-03-15T20:26:46.370Z,9.60
2019-03-15T20:29:13.787Z,7.53
2019-03-15T20:31:41.240Z,9.77
2019-03-15T20:34:08.643Z,8.43
2019-03-15T20:36:36.073Z,7.67
2019-03-15T20:39:04.065Z,10.07
2019-03-15T20:41:31.632Z,9.90
2019-03-15T20:44:00.588Z,11.30
2019-03-15T20:46:35.568Z,8.47
2019-03-15T20:48:57.464Z,9.03
2019-03-15T20:51:25.054Z,12.50
2019-03-15T20:53:52.493Z,11.08
2019-03-15T20:56:19.913Z,9.77
2019-03-15T20:58:47.364Z,13.77
2019-03-15T21:01:14.851Z,8.85
2019-03-15T21:03:55.174Z,10.40
2019-03-15T21:06:11.720Z,9.83
2019-03-15T21:08:39.158Z,8.67
2019-03-15T21:11:06.560Z,12.73
2019-03-15T21:13:34.201Z,9.97
2019-03-15T21:16:01.811Z,10.10
2019-03-15T21:18:29.227Z,11.77
2019-03-15T21:23:44.699Z,11.93
2019-03-15T21:26:12.188Z,9.67
2019-03-15T21:28:42.904Z,8.53
2019-03-15T21:31:10.565Z,8.38
2019-03-15T21:33:37.982Z,7.87
2019-03-15T21:36:05.398Z,10.47
2019-03-15T21:38:32.879Z,5.80
2019-03-15T21:41:00.677Z,7.95
2019-03-15T21:43:28.149Z,8.58
2019-03-15T21:45:55.572Z,6.60
2019-03-15T21:48:23.025Z,8.40
2019-03-15T21:50:50.423Z,8.35
2019-03-15T21:53:17.882Z,5.13
2019-03-15T21:55:45.381Z,10.63
2019-03-15T21:58:12.786Z,8.43
2019-03-15T22:00:40.646Z,6.10
2019-03-15T22:03:08.132Z,6.47
2019-03-15T22:05:35.781Z,8.53
2019-03-15T22:08:03.216Z,7.10
2019-03-15T22:10:30.850Z,7.77
2019-03-15T22:12:58.342Z,7.78
2019-03-15T22:15:25.819Z,6.07
2019-03-15T22:17:53.417Z,5.53
2019-03-15T22:20:21.038Z,7.10
2019-03-15T22:22:48.448Z,6.87
2019-03-15T22:25:15.947Z,5.03
2019-03-15T22:27:43.438Z,7.57
2019-03-15T22:30:10.967Z,14.40
2019-03-15T22:32:38.412Z,8.20
2019-03-15T22:35:05.941Z,5.30
2019-03-15T22:37:33.701Z,5.62
2019-03-15T22:40:01.667Z,4.62
2019-03-15T22:42:29.179Z,9.28
2019-03-15T22:44:58.981Z,5.53
2019-03-15T22:47:26.418Z,5.97
2019-03-15T22:49:53.808Z,9.58
2019-03-15T22:52:21.297Z,12.35
2019-03-15T22:54:48.826Z,8.73
2019-03-15T22:57:16.298Z,9.30
2019-03-15T22:59:43.679Z,7.58
2019-03-15T23:02:11.155Z,8.63
2019-03-15T23:04:38.536Z,9.97
2019-03-15T23:07:05.965Z,8.78
2019-03-15T23:09:33.387Z,5.63
2019-03-15T23:12:00.827Z,7.05
2019-03-15T23:14:28.239Z,8.05
2019-03-15T23:16:55.668Z,4.87
2019-03-15T23:19:23.209Z,6.53
2019-03-15T23:21:50.652Z,6.78
2019-03-15T23:24:18.162Z,10.63
2019-03-15T23:26:45.613Z,6.17
2019-03-15T23:29:13.174Z,6.83
2019-03-15T23:31:43.762Z,5.65
2019-03-15T23:34:09.824Z,6.55
2019-03-15T23:36:37.218Z,6.28
2019-03-15T23:39:04.564Z,7.30
2019-03-15T23:41:32.073Z,9.23
2019-03-15T23:43:59.492Z,7.47
2019-03-15T23:46:26.980Z,5.17
2019-03-15T23:48:54.454Z,6.53
2019-03-15T23:51:21.913Z,6.87
2019-03-15T23:53:49.320Z,6.77
2019-03-15T23:56:16.744Z,7.37
2019-03-15T23:58:44.251Z,6.43
